Impacts METAR Board
IDs:

KCLT - Charlotte/Douglas In, NC, US

Updated at: 0900 UTC 19 Jul 2018
Potential Impact None Slight Moderate High
Time 18/21Z 18/22Z 18/23Z 19/00Z 19/01Z 19/02Z 19/03Z 19/04Z 19/05Z 19/06Z 19/07Z 19/08Z 19/09Z
Temp89 92 90 87 86 84 83 81 81 79 78 76 76
Dewpt60 60 59 60 61 60 62 66 66 67 67 66 61
Altim29.93 29.93 29.92 29.93 29.95 29.97 29.98 29.99 30.01 30.01 30.00 30.00 30.00
VIS10 10 10 10 10 10 10 10 10 10 10 10 10
CIG-- -- -- -- 250 -- -- -- 85 -- -- -- --
CoverSCTFEWFEWSCTBKNSCTSCTSCTBKNSCTSCTFEWSCT
FltCatVFRVFRVFRVFRVFRVFRVFRVFRVFRVFRVFRVFRVFR
WX--------------------------
WDir0302036070001101101201009080
WSpd6 7 7 3 6 5 6 6 7 7 7 5 7
WGst-- -- -- -- -- -- -- -- -- -- -- -- --
Raw hourly METARs
KCLT 182052Z VRB06KT 10SM FEW070 SCT250 32/16 A2993 RMK AO2 SLP124 T03170156 56014
KCLT 182152Z 03007KT 10SM FEW080 FEW250 33/16 A2993 RMK AO2 SLP123 T03330156
KCLT 182252Z 02007KT 10SM FEW080 FEW250 32/15 A2992 RMK AO2 SLP123 T03220150
KCLT 182352Z 36003KT 10SM FEW070 SCT250 31/16 A2993 RMK AO2 SLP125 CB DSNT S T03060156 10339 20306 53001
KCLT 190052Z 07006KT 10SM FEW065 SCT085 BKN250 30/16 A2995 RMK AO2 SLP132 LTG DSNT S CB DSNT S T03000161
KCLT 190152Z VRB05KT 10SM FEW060 SCT085 SCT250 29/16 A2997 RMK AO2 SLP137 LTG DSNT S CB DSNT S T02890156
KCLT 190252Z VRB06KT 10SM FEW085 SCT250 28/17 A2998 RMK AO2 SLP140 LTG DSNT S CB DSNT S T02830167 51015
KCLT 190352Z 11006KT 10SM FEW060 SCT075 SCT250 27/19 A2999 RMK AO2 SLP145 LTG DSNT S CB DSNT S T02720189
KCLT 190452Z 11007KT 10SM SCT050 BKN085 BKN250 27/19 A3001 RMK AO2 SLP151 T02720189 403390217
KCLT 190552Z 12007KT 10SM FEW055 SCT080 26/19 A3001 RMK AO2 SLP151 T02610194 10311 20261 50010
KCLT 190652Z 10007KT 10SM SCT080 26/19 A3000 RMK AO2 SLP149 T02560194
KCLT 190752Z 09005KT 10SM FEW050 FEW080 24/19 A3000 RMK AO2 SLP147 T02440189
KCLT 190852Z 08007KT 10SM SCT050 24/16 A3000 RMK AO2 SLP150 T02440161 55001



Page loaded:  09:33 UTC  |   02:33 AM Pacific  |   03:33 AM Mountain  |   04:33 AM Central  |   05:33 AM Eastern

 

ADVISORIES

FORECASTS

FORECASTS

OBSERVATIONS

USER TOOLS

ABOUT US